createdAt,value
2022-10-27T00:01:00.092Z,99110.28
2022-10-27T00:05:58.323Z,99115.41
2022-10-27T00:08:26.293Z,99112.81
2022-10-27T00:10:58.857Z,99117.00
2022-10-27T00:13:27.228Z,99105.91
2022-10-27T00:15:58.658Z,99108.31
2022-10-27T00:18:26.960Z,99118.19
2022-10-27T00:21:04.612Z,99114.63
2022-10-27T00:23:33.181Z,99120.84
2022-10-27T00:26:02.463Z,99117.56
2022-10-27T00:28:31.407Z,99113.72
2022-10-27T00:31:00.707Z,99115.88
2022-10-27T00:33:29.252Z,99122.97
2022-10-27T00:35:57.392Z,99120.47
2022-10-27T00:38:26.713Z,99126.97
2022-10-27T00:40:54.695Z,99132.38
2022-10-27T00:43:30.655Z,99124.84
2022-10-27T00:46:03.568Z,99124.72
2022-10-27T00:48:33.906Z,99121.03
2022-10-27T00:51:04.223Z,99117.53
2022-10-27T00:53:34.974Z,99119.63
2022-10-27T00:56:03.450Z,99124.53
2022-10-27T00:58:31.874Z,99112.78
2022-10-27T01:01:00.295Z,99114.56
2022-10-27T01:03:28.809Z,99112.75
2022-10-27T01:05:59.341Z,99124.09
2022-10-27T01:08:28.162Z,99124.25
2022-10-27T01:10:57.595Z,99122.56
2022-10-27T01:13:26.224Z,99117.47
2022-10-27T01:16:05.750Z,99130.13
2022-10-27T01:18:39.605Z,99124.19
2022-10-27T01:21:37.315Z,99131.09
2022-10-27T01:24:41.160Z,99128.84
2022-10-27T01:27:25.455Z,99122.69
2022-10-27T01:30:07.936Z,99123.78
2022-10-27T01:32:46.816Z,99124.72
2022-10-27T01:35:20.635Z,99116.22
2022-10-27T01:37:55.745Z,99123.44
2022-10-27T01:40:29.393Z,99124.63
2022-10-27T01:43:03.002Z,99125.47
2022-10-27T01:45:34.983Z,99133.22
2022-10-27T01:48:07.523Z,99128.63
2022-10-27T01:50:45.316Z,99132.66
2022-10-27T01:53:25.367Z,99130.09
2022-10-27T01:56:06.168Z,99134.06
2022-10-27T01:59:04.714Z,99132.53
2022-10-27T02:01:47.502Z,99134.06
2022-10-27T02:04:23.565Z,99136.91
2022-10-27T02:06:58.001Z,99136.66
2022-10-27T02:09:30.373Z,99137.84
2022-10-27T02:12:01.433Z,99137.72
2022-10-27T02:14:29.889Z,99132.97
2022-10-27T02:16:58.904Z,99127.28
2022-10-27T02:19:30.637Z,99142.97
2022-10-27T02:22:01.958Z,99138.06
2022-10-27T02:24:31.039Z,99149.84
2022-10-27T02:27:02.529Z,99154.41
2022-10-27T02:29:34.824Z,99158.28
2022-10-27T02:32:07.183Z,99161.69
2022-10-27T02:34:38.602Z,99169.03
2022-10-27T02:37:07.494Z,99166.69
2022-10-27T02:39:35.545Z,99165.81
2022-10-27T02:42:04.061Z,99164.88
2022-10-27T02:44:32.108Z,99168.44
2022-10-27T02:47:02.036Z,99167.94
2022-10-27T02:49:30.392Z,99170.56
2022-10-27T02:51:59.899Z,99166.78
2022-10-27T02:54:27.909Z,99173.69
2022-10-27T02:56:55.873Z,99168.00
2022-10-27T02:59:23.897Z,99164.81
2022-10-27T03:01:52.164Z,99179.81
2022-10-27T03:04:20.369Z,99172.06
2022-10-27T03:06:48.373Z,99174.59
2022-10-27T03:09:17.763Z,99186.47
2022-10-27T03:11:46.506Z,99187.47
2022-10-27T03:14:14.666Z,99182.66
2022-10-27T03:16:42.726Z,99188.44
2022-10-27T03:19:10.711Z,99191.97
2022-10-27T03:21:38.864Z,99194.19
2022-10-27T03:24:07.300Z,99180.13
2022-10-27T03:26:36.687Z,99182.50
2022-10-27T03:29:08.831Z,99186.94
2022-10-27T03:31:36.807Z,99188.50
2022-10-27T03:34:04.823Z,99190.53
2022-10-27T03:36:32.837Z,99195.78
2022-10-27T03:39:00.897Z,99203.03
2022-10-27T03:41:28.910Z,99195.19
2022-10-27T03:43:58.291Z,99196.03
2022-10-27T03:46:26.332Z,99196.09
2022-10-27T03:48:55.469Z,99198.91
2022-10-27T03:51:23.597Z,99198.53
2022-10-27T03:53:51.557Z,99200.06
2022-10-27T03:56:19.506Z,99202.34
2022-10-27T03:58:47.450Z,99207.91
2022-10-27T04:01:17.027Z,99200.25
2022-10-27T04:03:45.104Z,99197.06
2022-10-27T04:06:13.098Z,99201.06
2022-10-27T04:08:41.144Z,99206.31
2022-10-27T04:11:09.084Z,99208.13
2022-10-27T04:13:37.202Z,99211.66
2022-10-27T04:16:05.492Z,99208.59
2022-10-27T04:18:35.182Z,99205.53
2022-10-27T04:21:03.878Z,99209.88
2022-10-27T04:23:31.973Z,99197.91
2022-10-27T04:26:00.434Z,99200.50
2022-10-27T04:28:28.390Z,99208.66
2022-10-27T04:30:56.517Z,99213.66
2022-10-27T04:33:28.043Z,99210.75
2022-10-27T04:35:58.585Z,99205.44
2022-10-27T04:38:26.677Z,99207.72
2022-10-27T04:40:54.641Z,99204.03
2022-10-27T04:43:22.591Z,99202.50
2022-10-27T04:45:50.591Z,99206.91
2022-10-27T04:48:18.585Z,99205.59
2022-10-27T04:50:46.662Z,99221.03
2022-10-27T04:53:16.006Z,99221.50
2022-10-27T04:55:44.035Z,99220.41
2022-10-27T04:58:12.048Z,99219.19
2022-10-27T05:00:40.048Z,99226.22
2022-10-27T05:03:08.049Z,99229.53
2022-10-27T05:05:36.147Z,99227.25
2022-10-27T05:08:05.379Z,99229.06
2022-10-27T05:10:35.644Z,99236.25
2022-10-27T05:13:03.732Z,99231.97
2022-10-27T05:15:32.125Z,99238.09
2022-10-27T05:18:00.229Z,99240.06
2022-10-27T05:20:28.220Z,99250.13
2022-10-27T05:22:56.223Z,99242.03
2022-10-27T05:25:24.724Z,99250.75
2022-10-27T05:27:54.424Z,99245.06
2022-10-27T05:30:22.877Z,99247.25
2022-10-27T05:32:50.954Z,99245.13
2022-10-27T05:35:18.948Z,99256.97
2022-10-27T05:37:47.419Z,99260.94
2022-10-27T05:40:16.311Z,99264.72
2022-10-27T05:42:51.987Z,99264.63
2022-10-27T05:45:23.645Z,99270.06
2022-10-27T05:47:58.679Z,99275.00
2022-10-27T05:50:28.104Z,99265.19
2022-10-27T05:52:56.307Z,99272.13
2022-10-27T05:55:25.088Z,99272.38
2022-10-27T05:57:56.384Z,99283.72
2022-10-27T06:00:30.558Z,99284.22
2022-10-27T06:02:59.089Z,99280.56
2022-10-27T06:05:27.916Z,99284.59
2022-10-27T06:07:55.943Z,99302.50
2022-10-27T06:10:24.116Z,99296.03
2022-10-27T06:12:52.150Z,99297.91
2022-10-27T06:15:20.071Z,99307.34
2022-10-27T06:17:53.579Z,99314.59
2022-10-27T06:20:22.106Z,99314.47
2022-10-27T06:22:50.507Z,99310.34
2022-10-27T06:25:19.037Z,99308.88
2022-10-27T06:27:47.068Z,99316.22
2022-10-27T06:30:15.437Z,99320.19
2022-10-27T06:32:43.781Z,99319.28
2022-10-27T06:35:13.245Z,99318.34
2022-10-27T06:37:44.511Z,99328.53
2022-10-27T06:40:13.800Z,99325.72
2022-10-27T06:42:49.259Z,99325.88
2022-10-27T06:45:23.605Z,99331.13
2022-10-27T06:47:58.198Z,99324.59
2022-10-27T06:50:27.719Z,99330.66
2022-10-27T06:52:55.702Z,99334.41
2022-10-27T06:55:23.897Z,99331.53
2022-10-27T06:57:52.604Z,99334.03
2022-10-27T07:00:22.028Z,99337.41
2022-10-27T07:02:50.249Z,99339.88
2022-10-27T07:05:18.762Z,99344.75
2022-10-27T07:07:49.505Z,99342.03
2022-10-27T07:10:18.033Z,99340.81
2022-10-27T07:12:53.941Z,99357.91
2022-10-27T07:15:22.750Z,99352.25
2022-10-27T07:17:58.610Z,99357.44
2022-10-27T07:20:28.043Z,99359.91
2022-10-27T07:22:57.510Z,99363.97
2022-10-27T07:25:25.804Z,99362.44
2022-10-27T07:27:55.285Z,99362.47
2022-10-27T07:30:25.218Z,99362.66
2022-10-27T07:32:53.249Z,99368.31
2022-10-27T07:35:21.394Z,99374.59
2022-10-27T07:37:50.414Z,99373.72
2022-10-27T07:40:22.090Z,99377.53
2022-10-27T07:42:51.832Z,99378.13
2022-10-27T07:45:22.133Z,99382.59
2022-10-27T07:47:51.918Z,99383.84
2022-10-27T07:50:25.344Z,99379.38
2022-10-27T07:52:56.030Z,99383.69
2022-10-27T07:55:27.427Z,99375.72
2022-10-27T07:58:02.569Z,99379.38
2022-10-27T08:00:31.444Z,99384.00
2022-10-27T08:03:01.187Z,99389.84
2022-10-27T08:05:29.324Z,99388.31
2022-10-27T08:08:00.562Z,99388.59
2022-10-27T08:10:29.918Z,99391.34
2022-10-27T08:12:57.969Z,99390.56
2022-10-27T08:15:26.388Z,99402.44
2022-10-27T08:17:55.831Z,99389.81
2022-10-27T08:20:24.190Z,99392.81
2022-10-27T08:22:56.414Z,99390.69
2022-10-27T08:25:24.585Z,99389.72
2022-10-27T08:27:54.770Z,99398.81
2022-10-27T08:30:24.755Z,99405.59
2022-10-27T08:32:57.280Z,99408.84
2022-10-27T08:35:25.713Z,99408.00
2022-10-27T08:38:00.444Z,99418.72
2022-10-27T08:40:37.429Z,99413.63
2022-10-27T08:43:23.718Z,99413.19
2022-10-27T08:45:59.557Z,99405.25
2022-10-27T08:48:29.841Z,99414.47
2022-10-27T08:50:57.869Z,99421.81
2022-10-27T08:53:31.514Z,99411.47
2022-10-27T08:56:05.657Z,99415.09
2022-10-27T08:58:38.902Z,99407.34
2022-10-27T09:01:18.504Z,99414.09
2022-10-27T09:04:05.581Z,99408.44
2022-10-27T09:06:38.897Z,99411.41
2022-10-27T09:09:17.498Z,99419.22
2022-10-27T09:11:56.420Z,99414.19
2022-10-27T09:14:44.140Z,99411.00
2022-10-27T09:17:15.573Z,99414.94
2022-10-27T09:19:49.556Z,99419.47
2022-10-27T09:22:20.094Z,99420.50
2022-10-27T09:24:57.156Z,99427.16
2022-10-27T09:27:26.008Z,99435.22
2022-10-27T09:30:03.544Z,99429.22
2022-10-27T09:32:34.919Z,99432.25
2022-10-27T09:35:06.552Z,99434.69
2022-10-27T09:37:40.638Z,99438.50
2022-10-27T09:40:13.761Z,99442.41
2022-10-27T09:42:42.147Z,99424.19
2022-10-27T09:45:20.310Z,99425.38
2022-10-27T09:47:53.131Z,99430.34
2022-10-27T09:50:24.396Z,99426.38
2022-10-27T09:52:53.542Z,99427.81
2022-10-27T09:55:22.036Z,99426.78
2022-10-27T09:57:51.390Z,99423.94
2022-10-27T10:00:30.956Z,99428.06
2022-10-27T10:05:38.256Z,99420.06
2022-10-27T10:08:14.662Z,99419.16
2022-10-27T10:10:55.927Z,99415.78
2022-10-27T10:13:24.586Z,99420.31
2022-10-27T10:16:07.975Z,99404.97
2022-10-27T10:18:37.079Z,99409.06
2022-10-27T10:21:06.849Z,99408.59
2022-10-27T10:23:37.285Z,99404.88
2022-10-27T10:26:16.831Z,99401.91
2022-10-27T10:28:45.790Z,99414.72
2022-10-27T10:31:23.236Z,99402.97
2022-10-27T10:33:51.396Z,99401.56
2022-10-27T10:36:27.049Z,99397.94
2022-10-27T10:38:56.657Z,99395.44
2022-10-27T10:41:25.758Z,99394.63
2022-10-27T10:44:13.621Z,99397.91
2022-10-27T10:46:53.289Z,99394.06
2022-10-27T10:49:23.362Z,99399.22
2022-10-27T10:51:53.308Z,99391.50
2022-10-27T10:54:26.613Z,99395.66
2022-10-27T10:56:56.164Z,99394.94
2022-10-27T10:59:27.518Z,99392.88
2022-10-27T11:02:07.048Z,99394.63
2022-10-27T11:04:42.521Z,99395.66
2022-10-27T11:07:20.551Z,99399.16
2022-10-27T11:09:56.576Z,99399.75
2022-10-27T11:12:31.797Z,99391.25
2022-10-27T11:15:05.819Z,99397.19
2022-10-27T11:17:37.419Z,99391.34
2022-10-27T11:20:08.135Z,99393.66
2022-10-27T11:22:37.886Z,99391.53
2022-10-27T11:25:12.985Z,99387.25
2022-10-27T11:27:50.098Z,99379.63
2022-10-27T11:30:23.542Z,99381.72
2022-10-27T11:33:03.467Z,99386.53
2022-10-27T11:35:37.603Z,99368.75
2022-10-27T11:38:12.603Z,99380.88
2022-10-27T11:40:47.947Z,99381.47
2022-10-27T11:43:22.762Z,99382.22
2022-10-27T11:45:57.148Z,99378.16
2022-10-27T11:48:34.680Z,99375.13
2022-10-27T11:51:08.351Z,99367.41
2022-10-27T11:53:40.114Z,99374.91
2022-10-27T11:56:40.382Z,99368.22
2022-10-27T11:59:22.145Z,99359.19
2022-10-27T12:02:01.373Z,99360.81
2022-10-27T12:04:45.147Z,99352.13
2022-10-27T12:07:23.316Z,99354.19
2022-10-27T12:10:06.398Z,99351.97
2022-10-27T12:12:38.175Z,99355.75
2022-10-27T12:15:11.935Z,99354.72
2022-10-27T12:17:44.883Z,99355.47
2022-10-27T12:20:19.287Z,99354.72
2022-10-27T12:22:54.780Z,99358.22
2022-10-27T12:25:30.748Z,99350.19
2022-10-27T12:28:03.273Z,99355.94
2022-10-27T12:30:31.488Z,99357.66
2022-10-27T12:33:04.895Z,99354.09
2022-10-27T12:35:40.875Z,99357.44
2022-10-27T12:38:14.808Z,99353.44
2022-10-27T12:40:47.541Z,99354.41
2022-10-27T12:43:22.995Z,99357.03
2022-10-27T12:46:06.278Z,99354.88
2022-10-27T12:48:38.642Z,99347.81
2022-10-27T12:51:23.470Z,99347.94
2022-10-27T12:53:56.851Z,99350.84
2022-10-27T12:56:32.636Z,99351.69
2022-10-27T12:59:15.472Z,99347.34
2022-10-27T13:01:55.598Z,99351.19
2022-10-27T13:05:05.291Z,99351.41
2022-10-27T13:08:09.353Z,99349.22
2022-10-27T13:11:07.571Z,99354.34
2022-10-27T13:13:53.663Z,99356.38
2022-10-27T13:16:32.653Z,99351.47
2022-10-27T13:19:14.696Z,99349.25
2022-10-27T13:21:48.937Z,99356.03
2022-10-27T13:24:28.393Z,99343.63
2022-10-27T13:27:05.212Z,99350.66
2022-10-27T13:29:42.730Z,99333.31
2022-10-27T13:32:32.871Z,99342.50
2022-10-27T13:35:35.696Z,99343.19
2022-10-27T13:38:23.513Z,99338.78
2022-10-27T13:40:53.136Z,99334.59
2022-10-27T13:43:49.144Z,99332.81
2022-10-27T13:46:20.728Z,99337.88
2022-10-27T13:48:50.080Z,99327.72
2022-10-27T13:51:48.915Z,99337.75
2022-10-27T13:54:51.714Z,99346.13
2022-10-27T13:57:56.553Z,99338.41
2022-10-27T14:00:30.337Z,99330.09
2022-10-27T14:03:11.025Z,99344.06
2022-10-27T14:08:23.131Z,99341.50
2022-10-27T14:10:52.788Z,99348.72
2022-10-27T14:13:23.771Z,99345.22
2022-10-27T14:15:59.021Z,99346.63
2022-10-27T14:18:33.822Z,99345.31
2022-10-27T14:21:14.371Z,99347.94
2022-10-27T14:23:42.801Z,99355.72
2022-10-27T14:26:33.087Z,99347.78
2022-10-27T14:29:01.419Z,99350.09
2022-10-27T14:31:30.366Z,99343.69
2022-10-27T14:34:16.677Z,99353.44
2022-10-27T14:36:44.805Z,99353.44
2022-10-27T14:39:26.270Z,99351.72
2022-10-27T14:42:02.836Z,99359.50
2022-10-27T14:44:33.412Z,99354.94
2022-10-27T14:47:05.168Z,99358.75
2022-10-27T14:49:40.493Z,99356.34
2022-10-27T14:52:10.717Z,99357.59
2022-10-27T14:54:39.914Z,99361.81
2022-10-27T14:57:29.886Z,99348.47
2022-10-27T14:59:57.885Z,99363.13
2022-10-27T15:02:27.430Z,99360.31
2022-10-27T15:05:12.727Z,99360.59
2022-10-27T15:07:46.347Z,99363.44
2022-10-27T15:10:18.839Z,99364.53
2022-10-27T15:12:52.632Z,99363.47
2022-10-27T15:15:21.369Z,99370.94
2022-10-27T15:17:52.287Z,99365.44
2022-10-27T15:20:24.996Z,99378.16
2022-10-27T15:22:54.686Z,99374.38
2022-10-27T15:25:25.313Z,99375.84
2022-10-27T15:27:53.619Z,99372.56
2022-10-27T15:30:22.456Z,99376.91
2022-10-27T15:32:50.976Z,99370.31
2022-10-27T15:35:29.077Z,99383.50
2022-10-27T15:37:57.606Z,99373.38
2022-10-27T15:40:41.062Z,99380.75
2022-10-27T15:43:24.778Z,99374.34
2022-10-27T15:45:54.085Z,99371.03
2022-10-27T15:48:34.893Z,99372.06
2022-10-27T15:51:07.296Z,99372.56
2022-10-27T15:53:37.515Z,99376.34
2022-10-27T15:56:07.559Z,99374.63
2022-10-27T15:58:37.542Z,99376.31
2022-10-27T16:01:12.070Z,99375.66
2022-10-27T16:03:43.357Z,99374.97
2022-10-27T16:06:27.543Z,99380.69
2022-10-27T16:08:56.688Z,99376.19
2022-10-27T16:11:26.291Z,99384.16
2022-10-27T16:13:57.937Z,99384.47
2022-10-27T16:16:26.919Z,99393.47
2022-10-27T16:18:56.866Z,99387.94
2022-10-27T16:21:28.609Z,99395.94
2022-10-27T16:24:00.145Z,99392.03
2022-10-27T16:26:29.528Z,99385.72
2022-10-27T16:29:01.044Z,99381.63
2022-10-27T16:31:30.412Z,99388.84
2022-10-27T16:33:59.506Z,99393.84
2022-10-27T16:36:29.019Z,99394.59
2022-10-27T16:38:56.984Z,99398.84
2022-10-27T16:41:30.690Z,99404.94
2022-10-27T16:43:58.741Z,99400.88
2022-10-27T16:46:27.717Z,99403.13
2022-10-27T16:48:55.808Z,99402.66
2022-10-27T16:51:23.792Z,99406.00
2022-10-27T16:53:53.126Z,99408.41
2022-10-27T16:56:21.224Z,99409.84
2022-10-27T16:58:50.429Z,99402.22
2022-10-27T17:01:21.368Z,99402.00
2022-10-27T17:03:49.962Z,99407.84
2022-10-27T17:06:21.956Z,99408.63
2022-10-27T17:08:50.347Z,99409.41
2022-10-27T17:11:19.682Z,99411.19
2022-10-27T17:13:47.675Z,99403.75
2022-10-27T17:16:17.657Z,99408.59
2022-10-27T17:18:45.947Z,99404.00
2022-10-27T17:21:14.557Z,99414.59
2022-10-27T17:23:44.598Z,99413.31
2022-10-27T17:26:13.961Z,99411.13
2022-10-27T17:28:46.339Z,99413.59
2022-10-27T17:31:17.834Z,99417.00
2022-10-27T17:33:47.469Z,99416.41
2022-10-27T17:36:16.524Z,99407.72
2022-10-27T17:38:44.504Z,99415.91
2022-10-27T17:41:12.762Z,99411.88
2022-10-27T17:43:40.908Z,99417.41
2022-10-27T17:46:13.281Z,99409.41
2022-10-27T17:48:43.001Z,99411.66
2022-10-27T17:51:13.147Z,99407.78
2022-10-27T17:53:42.198Z,99419.19
2022-10-27T17:56:12.656Z,99428.13
2022-10-27T17:58:41.738Z,99424.81
2022-10-27T18:01:15.393Z,99414.31
2022-10-27T18:03:44.689Z,99417.72
2022-10-27T18:06:14.762Z,99421.00
2022-10-27T18:08:43.172Z,99420.25
2022-10-27T18:11:13.098Z,99425.31
2022-10-27T18:13:42.888Z,99421.78
2022-10-27T18:16:15.644Z,99420.97
2022-10-27T18:18:43.781Z,99421.78
2022-10-27T18:21:11.845Z,99415.19
2022-10-27T18:23:39.820Z,99409.56
2022-10-27T18:26:09.429Z,99417.16
2022-10-27T18:31:13.653Z,99415.59
2022-10-27T18:33:42.703Z,99422.44
2022-10-27T18:36:13.103Z,99431.75
2022-10-27T18:38:41.097Z,99421.81
2022-10-27T18:41:10.537Z,99425.28
2022-10-27T18:43:38.779Z,99429.22
2022-10-27T18:46:08.786Z,99432.03
2022-10-27T18:48:38.138Z,99431.75
2022-10-27T18:51:08.427Z,99435.31
2022-10-27T18:53:36.405Z,99435.66
2022-10-27T18:56:06.557Z,99440.69
2022-10-27T18:58:35.877Z,99435.94
2022-10-27T19:01:05.194Z,99436.03
2022-10-27T19:03:33.442Z,99432.75
2022-10-27T19:06:10.890Z,99442.53
2022-10-27T19:08:39.089Z,99442.44
2022-10-27T19:11:10.034Z,99447.91
2022-10-27T19:13:39.158Z,99446.56
2022-10-27T19:16:11.075Z,99452.03
2022-10-27T19:18:39.666Z,99450.88
2022-10-27T19:21:13.537Z,99451.34
2022-10-27T19:23:41.583Z,99447.31
2022-10-27T19:26:12.009Z,99451.25
2022-10-27T19:28:42.341Z,99459.94
2022-10-27T19:31:16.116Z,99460.69
2022-10-27T19:33:46.035Z,99457.03
2022-10-27T19:36:18.238Z,99456.22
2022-10-27T19:38:46.455Z,99451.81
2022-10-27T19:41:17.200Z,99449.13
2022-10-27T19:43:47.300Z,99451.91
2022-10-27T19:46:18.367Z,99443.66
2022-10-27T19:48:51.027Z,99450.16
2022-10-27T19:51:22.495Z,99445.38
2022-10-27T19:53:50.918Z,99445.97
2022-10-27T19:56:19.827Z,99453.50
2022-10-27T19:58:50.832Z,99456.81
2022-10-27T20:01:21.086Z,99453.25
2022-10-27T20:03:49.535Z,99443.94
2022-10-27T20:06:18.555Z,99447.53
2022-10-27T20:08:53.510Z,99448.75
2022-10-27T20:11:25.822Z,99440.84
2022-10-27T20:13:55.601Z,99438.44
2022-10-27T20:16:25.914Z,99439.16
2022-10-27T20:18:54.392Z,99441.31
2022-10-27T20:21:22.403Z,99439.19
2022-10-27T20:23:51.766Z,99441.41
2022-10-27T20:26:35.169Z,99441.25
2022-10-27T20:29:03.772Z,99439.84
2022-10-27T20:31:31.919Z,99442.31
2022-10-27T20:34:00.207Z,99445.94
2022-10-27T20:36:28.233Z,99450.31
2022-10-27T20:38:58.412Z,99444.91
2022-10-27T20:41:27.935Z,99448.69
2022-10-27T20:43:57.123Z,99441.50
2022-10-27T20:46:26.734Z,99431.38
2022-10-27T20:48:56.135Z,99441.75
2022-10-27T20:51:28.769Z,99440.66
2022-10-27T20:53:59.026Z,99441.47
2022-10-27T20:56:28.581Z,99445.28
2022-10-27T20:58:56.961Z,99440.75
2022-10-27T21:01:30.189Z,99439.22
2022-10-27T21:04:00.230Z,99445.56
2022-10-27T21:06:29.775Z,99447.03
2022-10-27T21:09:00.911Z,99451.25
2022-10-27T21:11:30.050Z,99448.03
2022-10-27T21:14:02.031Z,99439.41
2022-10-27T21:16:30.934Z,99439.22
2022-10-27T21:19:00.421Z,99441.75
2022-10-27T21:21:30.073Z,99431.69
2022-10-27T21:24:00.697Z,99442.59
2022-10-27T21:26:29.040Z,99437.34
2022-10-27T21:28:58.283Z,99435.81
2022-10-27T21:31:28.886Z,99438.44
2022-10-27T21:33:58.166Z,99422.34
2022-10-27T21:36:26.211Z,99422.81
2022-10-27T21:38:54.157Z,99416.97
2022-10-27T21:41:25.204Z,99428.44
2022-10-27T21:43:54.835Z,99421.94
2022-10-27T21:46:24.694Z,99422.63
2022-10-27T21:48:55.025Z,99424.94
2022-10-27T21:51:23.577Z,99427.25
2022-10-27T21:54:00.355Z,99425.50
2022-10-27T21:56:31.643Z,99420.22
2022-10-27T21:59:00.049Z,99418.41
2022-10-27T22:01:29.063Z,99417.19
2022-10-27T22:03:57.668Z,99414.69
2022-10-27T22:06:27.701Z,99412.47
2022-10-27T22:08:55.795Z,99419.47
2022-10-27T22:11:25.510Z,99416.13
2022-10-27T22:13:54.908Z,99418.25
2022-10-27T22:16:28.011Z,99423.66
2022-10-27T22:18:57.657Z,99421.97
2022-10-27T22:21:27.183Z,99417.84
2022-10-27T22:23:55.214Z,99420.47
2022-10-27T22:26:24.394Z,99420.06
2022-10-27T22:28:54.167Z,99427.19
2022-10-27T22:31:23.699Z,99429.88
2022-10-27T22:33:52.395Z,99434.44
2022-10-27T22:36:22.455Z,99431.28
2022-10-27T22:38:53.797Z,99432.41
2022-10-27T22:41:22.312Z,99427.66
2022-10-27T22:43:50.792Z,99426.88
2022-10-27T22:46:21.688Z,99425.16
2022-10-27T22:48:50.222Z,99420.19
2022-10-27T22:51:19.896Z,99436.31
2022-10-27T22:53:48.808Z,99432.03
2022-10-27T22:56:19.183Z,99422.94
2022-10-27T22:58:49.078Z,99424.53
2022-10-27T23:01:19.567Z,99431.03
2022-10-27T23:03:52.515Z,99429.88
2022-10-27T23:06:20.783Z,99433.13
2022-10-27T23:08:52.331Z,99431.81
2022-10-27T23:11:20.594Z,99428.56
2022-10-27T23:13:48.657Z,99427.59
2022-10-27T23:16:16.924Z,99429.19
2022-10-27T23:18:45.188Z,99421.41
2022-10-27T23:21:17.321Z,99418.41
2022-10-27T23:23:45.358Z,99426.41
2022-10-27T23:26:18.750Z,99427.03
2022-10-27T23:28:50.540Z,99426.03
2022-10-27T23:31:18.850Z,99429.09
2022-10-27T23:33:47.117Z,99424.41
2022-10-27T23:36:16.438Z,99427.97
2022-10-27T23:38:44.515Z,99420.50
2022-10-27T23:41:12.530Z,99431.75
2022-10-27T23:43:40.538Z,99430.13
2022-10-27T23:46:10.795Z,99428.13
2022-10-27T23:48:39.444Z,99430.53
2022-10-27T23:51:07.472Z,99424.22
2022-10-27T23:53:36.890Z,99426.47
2022-10-27T23:56:06.774Z,99427.44
2022-10-27T23:58:37.155Z,99430.56
